METAR Data
IDs: Format: Raw Decoded Include TAF

Data at: 2158 UTC 26 Feb 2020

NZWN 262130Z AUTO 01022KT 9999 NCD 21/14 Q1014 NOSIG
NZWN 262100Z AUTO 36020KT 9999 NCD 20/14 Q1014 NOSIG
NZWN 262030Z AUTO 36021KT 9999 FEW026/// 19/14 Q1015 NOSIG
NZWN 262000Z AUTO 36020G30KT 9999 BKN020/// 19/15 Q1015 NOSIG
NZWN 261930Z AUTO 36020KT 9999 BKN019/// 18/15 Q1015 NOSIG
NZWN 261900Z AUTO 01016KT 9999 FEW019/// 18/15 Q1015 NOSIG

TAF NZWN 261701Z 2618/2718 01010KT 9999 FEW020
  TEMPO 2618/2620 BKN012
  BECMG 2620/2622 35015G25KT
  BECMG 2712/2714 35015KT